Terminal Aerodrome Forecast
Issued by NWS

Home | Current Version | Previous Version | Text Only | Print | Product List | Glossary On
Versions: 1 2 3 4 5 6 7 8 9 10 11 12 13 14 15 16 17 18 19 20 21 22 23 24 25 26 27 28 29 30 31 32 33 34 35
000
FTUS43 KGLD 170551
TAFMCK
TAF
KMCK 170551Z 1706/1806 VRB04KT P6SM SKC
     FM170900 VRB04KT 6SM BR OVC025
     FM171100 VRB04KT 4SM BR OVC015
     FM171500 VRB05KT P6SM SCT015
     FM171700 11005KT P6SM SKC=

USA.gov is the U.S. government's official web portal to all federal, state and local government web resources and services.